createdAt,value
2023-02-16T00:00:19.585Z,5.03
2023-02-16T00:02:24.213Z,5.30
2023-02-16T00:04:30.006Z,5.90
2023-02-16T00:06:34.514Z,5.38
2023-02-16T00:08:36.100Z,6.30
2023-02-16T00:13:03.340Z,5.97
2023-02-16T00:15:18.478Z,5.47
2023-02-16T00:17:22.595Z,6.32
2023-02-16T00:21:31.338Z,8.38
2023-02-16T00:23:35.419Z,7.07
2023-02-16T00:25:37.078Z,9.68
2023-02-16T00:27:57.510Z,8.27
2023-02-16T00:30:01.850Z,7.82
2023-02-16T00:32:06.557Z,9.07
2023-02-16T00:34:24.628Z,9.93
2023-02-16T00:36:26.175Z,9.48
2023-02-16T00:38:30.610Z,8.93
2023-02-16T00:40:32.319Z,9.45
2023-02-16T00:42:52.399Z,7.80
2023-02-16T00:44:57.550Z,8.02
2023-02-16T00:47:03.102Z,8.73
2023-02-16T00:49:12.849Z,9.57
2023-02-16T00:51:25.808Z,9.15
2023-02-16T00:53:30.564Z,9.18
2023-02-16T00:55:36.163Z,9.68
2023-02-16T00:57:45.654Z,8.18
2023-02-16T00:59:48.394Z,8.93
2023-02-16T01:02:00.065Z,9.38
2023-02-16T01:04:09.689Z,8.53
2023-02-16T01:06:34.855Z,9.18
2023-02-16T01:08:56.671Z,8.55
2023-02-16T01:11:03.973Z,9.73
2023-02-16T01:13:14.547Z,8.65
2023-02-16T01:15:19.724Z,9.98
2023-02-16T01:17:26.304Z,10.77
2023-02-16T01:19:30.295Z,10.65
2023-02-16T01:23:38.161Z,9.75
2023-02-16T01:25:45.040Z,9.52
2023-02-16T01:27:52.010Z,9.20
2023-02-16T01:30:01.977Z,10.25
2023-02-16T01:32:04.394Z,10.05
2023-02-16T01:34:11.695Z,10.05
2023-02-16T01:36:25.152Z,9.77
2023-02-16T01:38:29.688Z,9.52
2023-02-16T01:40:34.411Z,11.00
2023-02-16T01:42:57.581Z,10.00
2023-02-16T01:45:20.546Z,10.70
2023-02-16T01:49:23.720Z,11.93
2023-02-16T01:51:35.705Z,12.45
2023-02-16T01:53:40.303Z,12.00
2023-02-16T01:55:43.414Z,11.52
2023-02-16T01:57:59.961Z,10.75
2023-02-16T02:00:22.922Z,11.90
2023-02-16T02:02:50.897Z,10.93
2023-02-16T02:05:17.382Z,8.82
2023-02-16T02:07:26.707Z,9.50
2023-02-16T02:09:31.237Z,8.77
2023-02-16T02:11:34.821Z,8.65
2023-02-16T02:13:40.509Z,8.18
2023-02-16T02:15:42.095Z,8.50
2023-02-16T02:17:46.299Z,7.60
2023-02-16T02:20:09.520Z,7.97
2023-02-16T02:22:55.678Z,7.15
2023-02-16T02:25:16.045Z,8.00
2023-02-16T02:27:27.501Z,7.32
2023-02-16T02:29:29.041Z,8.23
2023-02-16T02:31:45.786Z,7.55
2023-02-16T02:34:02.653Z,7.22
2023-02-16T02:36:04.089Z,7.05
2023-02-16T02:38:09.928Z,7.43
2023-02-16T02:40:11.412Z,7.35
2023-02-16T02:42:24.072Z,6.57
2023-02-16T02:44:29.119Z,6.47
2023-02-16T02:46:32.758Z,5.82
2023-02-16T02:48:36.929Z,5.78
2023-02-16T02:51:07.554Z,6.53
2023-02-16T02:53:27.990Z,6.90
2023-02-16T02:55:52.752Z,6.30
2023-02-16T02:58:15.979Z,6.53
2023-02-16T03:00:51.595Z,6.97
2023-02-16T03:02:56.611Z,6.63
2023-02-16T03:04:58.746Z,7.82
2023-02-16T03:07:02.098Z,8.18
2023-02-16T03:09:14.275Z,8.25
2023-02-16T03:11:39.832Z,7.93
2023-02-16T03:13:48.556Z,9.20
2023-02-16T03:15:55.988Z,9.52
2023-02-16T03:18:16.113Z,8.80
2023-02-16T03:20:38.965Z,8.88
2023-02-16T03:22:59.442Z,9.68
2023-02-16T03:25:22.180Z,9.45
2023-02-16T03:27:48.734Z,10.45
2023-02-16T03:29:54.191Z,10.20
2023-02-16T03:31:56.164Z,9.98
2023-02-16T03:33:58.074Z,10.23
2023-02-16T03:36:05.805Z,9.68
2023-02-16T03:38:07.692Z,10.15
2023-02-16T03:40:29.711Z,10.43
2023-02-16T03:42:33.768Z,9.30
2023-02-16T03:44:53.952Z,9.68
2023-02-16T03:46:55.545Z,6.90
2023-02-16T03:48:57.133Z,7.65
2023-02-16T03:53:08.257Z,9.38
2023-02-16T03:55:12.426Z,6.47
2023-02-16T03:59:20.177Z,7.47
2023-02-16T04:01:21.814Z,10.35
2023-02-16T04:03:41.877Z,7.20
2023-02-16T04:05:47.388Z,8.15
2023-02-16T04:07:59.349Z,8.40
2023-02-16T04:10:11.175Z,6.80
2023-02-16T04:12:34.033Z,7.22
2023-02-16T04:14:56.395Z,6.13
2023-02-16T04:17:04.326Z,6.95
2023-02-16T04:21:14.771Z,6.38
2023-02-16T04:23:20.951Z,4.28
2023-02-16T04:25:30.933Z,4.43
2023-02-16T04:27:36.204Z,6.50
2023-02-16T04:29:40.613Z,5.28
2023-02-16T04:31:42.255Z,4.60
2023-02-16T04:33:45.778Z,3.80
2023-02-16T04:35:52.412Z,4.30
2023-02-16T04:39:59.125Z,4.65
2023-02-16T04:42:01.465Z,3.80
2023-02-16T04:44:02.926Z,2.83
2023-02-16T04:46:23.972Z,2.00
2023-02-16T04:48:25.476Z,1.75
2023-02-16T04:50:29.765Z,1.27
2023-02-16T04:52:34.400Z,1.48
2023-02-16T04:54:41.921Z,0.90
2023-02-16T04:56:44.177Z,1.02
2023-02-16T04:58:48.472Z,1.13
2023-02-16T05:00:50.133Z,1.13
2023-02-16T05:02:54.292Z,0.77
2023-02-16T05:05:14.298Z,0.45
2023-02-16T05:07:15.794Z,0.38
2023-02-16T05:11:42.674Z,0.57
2023-02-16T05:14:05.634Z,2.08
2023-02-16T05:16:10.121Z,0.60
2023-02-16T05:18:11.612Z,1.00
2023-02-16T05:20:13.315Z,1.52
2023-02-16T05:22:14.918Z,0.70
2023-02-16T05:24:19.304Z,1.65
2023-02-16T05:26:23.478Z,1.60
2023-02-16T05:28:24.991Z,1.52
2023-02-16T05:30:26.623Z,1.80
2023-02-16T05:32:33.879Z,2.17
2023-02-16T05:34:35.630Z,2.13
2023-02-16T05:36:40.166Z,2.10
2023-02-16T05:38:47.999Z,1.92
2023-02-16T05:40:49.508Z,1.88
2023-02-16T05:42:56.898Z,1.83
2023-02-16T05:47:02.493Z,1.83
2023-02-16T05:49:10.499Z,2.25
2023-02-16T05:51:11.931Z,2.47
2023-02-16T05:53:13.489Z,1.88
2023-02-16T05:55:14.972Z,1.58
2023-02-16T05:57:35.742Z,1.23
2023-02-16T05:59:43.307Z,2.50
2023-02-16T06:01:49.403Z,0.60
2023-02-16T06:03:55.715Z,0.70
2023-02-16T06:06:00.949Z,1.00
2023-02-16T06:08:08.838Z,0.50
2023-02-16T06:10:10.323Z,1.05
2023-02-16T06:12:11.749Z,1.23
2023-02-16T06:14:14.517Z,1.10
2023-02-16T06:16:16.029Z,1.10
2023-02-16T06:18:36.060Z,1.60
2023-02-16T06:20:41.287Z,1.35
2023-02-16T06:22:42.935Z,1.88
2023-02-16T06:24:44.557Z,2.10
2023-02-16T06:28:50.031Z,2.75
2023-02-16T06:30:51.483Z,2.97
2023-02-16T06:32:53.117Z,3.95
2023-02-16T06:34:54.615Z,3.85
2023-02-16T06:36:58.816Z,3.85
2023-02-16T06:39:00.321Z,5.13
2023-02-16T06:41:05.003Z,4.20
2023-02-16T06:43:12.562Z,4.10
2023-02-16T06:45:16.953Z,3.38
2023-02-16T06:47:37.556Z,2.85
2023-02-16T06:49:41.718Z,2.25
2023-02-16T06:51:46.782Z,1.60
2023-02-16T06:53:50.804Z,1.25
2023-02-16T06:55:52.446Z,1.27
2023-02-16T06:57:56.964Z,1.40
2023-02-16T07:00:01.185Z,2.75
2023-02-16T07:02:09.492Z,1.27
2023-02-16T07:04:13.869Z,1.08
2023-02-16T07:08:22.438Z,1.08
2023-02-16T07:10:29.312Z,1.73
2023-02-16T07:12:39.988Z,0.73
2023-02-16T07:14:51.891Z,0.57
2023-02-16T07:17:05.484Z,1.08
2023-02-16T07:19:10.151Z,1.25
2023-02-16T07:21:14.697Z,0.57
2023-02-16T07:23:18.833Z,0.50
2023-02-16T07:25:39.548Z,0.50
2023-02-16T07:27:41.405Z,0.50
2023-02-16T07:29:48.146Z,0.40
2023-02-16T07:33:57.169Z,0.63
2023-02-16T07:36:02.247Z,0.50
2023-02-16T07:38:12.069Z,0.63
2023-02-16T07:40:16.003Z,2.55
2023-02-16T07:42:22.577Z,0.80
2023-02-16T07:44:45.061Z,1.05
2023-02-16T07:46:46.996Z,1.20
2023-02-16T07:48:49.340Z,1.10
2023-02-16T07:50:53.449Z,0.95
2023-02-16T07:52:57.845Z,1.23
2023-02-16T07:55:02.212Z,1.90
2023-02-16T07:57:06.698Z,2.05
2023-02-16T07:59:11.768Z,2.05
2023-02-16T08:01:15.908Z,1.63
2023-02-16T08:03:17.679Z,1.63
2023-02-16T08:05:19.409Z,1.63
2023-02-16T08:07:23.785Z,1.98
2023-02-16T08:09:25.382Z,2.38
2023-02-16T08:11:26.892Z,1.70
2023-02-16T08:13:28.377Z,2.00
2023-02-16T08:15:48.257Z,1.42
2023-02-16T08:17:55.807Z,1.73
2023-02-16T08:19:57.385Z,1.52
2023-02-16T08:24:08.297Z,1.17
2023-02-16T08:26:12.394Z,1.20
2023-02-16T08:28:14.857Z,1.25
2023-02-16T08:30:18.343Z,1.45
2023-02-16T08:32:20.254Z,1.00
2023-02-16T08:34:24.705Z,0.90
2023-02-16T08:36:26.482Z,1.20
2023-02-16T08:38:32.569Z,1.33
2023-02-16T08:40:36.767Z,0.82
2023-02-16T08:42:38.637Z,2.65
2023-02-16T08:44:40.967Z,1.10
2023-02-16T08:46:44.218Z,1.00
2023-02-16T08:48:48.826Z,1.02
2023-02-16T08:50:55.868Z,1.02
2023-02-16T08:52:58.320Z,0.75
2023-02-16T08:55:00.038Z,0.85
2023-02-16T08:57:02.925Z,0.63
2023-02-16T08:59:04.518Z,0.63
2023-02-16T09:01:08.355Z,1.02
2023-02-16T09:03:13.407Z,1.90
2023-02-16T09:05:18.308Z,1.20
2023-02-16T09:07:23.104Z,0.60
2023-02-16T09:09:27.533Z,1.38
2023-02-16T09:11:28.975Z,0.90
2023-02-16T09:13:30.404Z,0.85
2023-02-16T09:17:40.697Z,1.10
2023-02-16T09:19:43.679Z,1.60
2023-02-16T09:21:48.610Z,0.93
2023-02-16T09:23:54.556Z,2.00
2023-02-16T09:25:56.237Z,1.00
2023-02-16T09:27:57.850Z,0.98
2023-02-16T09:29:59.395Z,0.98
2023-02-16T09:32:01.104Z,0.75
2023-02-16T09:34:19.202Z,1.33
2023-02-16T09:36:39.239Z,0.95
2023-02-16T09:38:59.652Z,1.23
2023-02-16T09:41:07.915Z,0.98
2023-02-16T09:43:29.120Z,1.33
2023-02-16T09:45:51.369Z,1.48
2023-02-16T09:47:55.155Z,1.80
2023-02-16T09:50:01.319Z,1.33
2023-02-16T09:52:09.248Z,2.13
2023-02-16T09:54:32.395Z,1.38
2023-02-16T09:56:40.291Z,1.95
2023-02-16T09:58:44.666Z,1.95
2023-02-16T10:00:54.625Z,2.67
2023-02-16T10:02:59.455Z,1.75
2023-02-16T10:05:13.588Z,1.98
2023-02-16T10:07:39.999Z,2.00
2023-02-16T10:09:47.298Z,2.65
2023-02-16T10:11:49.651Z,2.13
2023-02-16T10:13:55.061Z,2.45
2023-02-16T10:16:22.255Z,1.65
2023-02-16T10:18:36.773Z,2.40
2023-02-16T10:20:44.418Z,2.22
2023-02-16T10:22:56.506Z,2.50
2023-02-16T10:25:14.712Z,2.45
2023-02-16T10:27:17.095Z,2.83
2023-02-16T10:29:24.556Z,2.80
2023-02-16T10:31:44.298Z,3.20
2023-02-16T10:34:16.302Z,3.50
2023-02-16T10:36:22.984Z,3.05
2023-02-16T10:38:35.135Z,2.60
2023-02-16T10:40:46.170Z,3.58
2023-02-16T10:43:12.142Z,3.23
2023-02-16T10:45:14.544Z,3.42
2023-02-16T10:47:41.162Z,4.00
2023-02-16T10:49:48.747Z,3.83
2023-02-16T10:52:09.904Z,3.42
2023-02-16T10:54:28.347Z,3.50
2023-02-16T10:56:41.987Z,3.78
2023-02-16T10:58:43.655Z,3.37
2023-02-16T11:01:11.298Z,3.50
2023-02-16T11:03:14.096Z,3.40
2023-02-16T11:05:36.538Z,2.78
2023-02-16T11:07:52.288Z,3.22
2023-02-16T11:09:57.799Z,2.85
2023-02-16T11:12:27.185Z,3.88
2023-02-16T11:14:31.005Z,2.70
2023-02-16T11:16:33.197Z,2.90
2023-02-16T11:18:40.174Z,2.65
2023-02-16T11:20:42.230Z,2.17
2023-02-16T11:22:46.242Z,1.70
2023-02-16T11:24:50.744Z,1.80
2023-02-16T11:27:02.584Z,2.08
2023-02-16T11:29:17.697Z,1.85
2023-02-16T11:31:22.123Z,2.28
2023-02-16T11:33:27.652Z,1.67
2023-02-16T11:35:31.917Z,2.00
2023-02-16T11:37:33.985Z,2.30
2023-02-16T11:39:40.102Z,2.10
2023-02-16T11:41:58.662Z,3.13
2023-02-16T11:44:01.811Z,2.60
2023-02-16T11:46:11.738Z,3.17
2023-02-16T11:48:33.552Z,3.00
2023-02-16T11:50:38.765Z,3.40
2023-02-16T11:52:40.233Z,3.85
2023-02-16T11:54:48.305Z,4.05
2023-02-16T11:57:03.632Z,3.22
2023-02-16T11:59:05.473Z,3.33
2023-02-16T12:01:31.418Z,2.78
2023-02-16T12:03:54.287Z,2.50
2023-02-16T12:05:58.489Z,2.30
2023-02-16T12:08:20.714Z,1.85
2023-02-16T12:11:00.824Z,1.08
2023-02-16T12:13:11.240Z,1.73
2023-02-16T12:15:19.602Z,1.67
2023-02-16T12:17:44.752Z,1.50
2023-02-16T12:19:48.008Z,1.70
2023-02-16T12:21:56.510Z,1.25
2023-02-16T12:24:32.009Z,1.23
2023-02-16T12:26:39.458Z,1.05
2023-02-16T12:29:20.661Z,1.27
2023-02-16T12:31:59.212Z,1.25
2023-02-16T12:34:09.709Z,0.85
2023-02-16T12:36:39.381Z,1.00
2023-02-16T12:38:53.023Z,0.77
2023-02-16T12:40:58.463Z,0.60
2023-02-16T12:43:21.696Z,0.70
2023-02-16T12:45:25.034Z,0.88
2023-02-16T12:47:34.468Z,1.65
2023-02-16T12:49:45.330Z,0.70
2023-02-16T12:51:52.128Z,0.85
2023-02-16T12:53:56.373Z,0.65
2023-02-16T12:56:03.737Z,0.88
2023-02-16T12:58:14.987Z,0.68
2023-02-16T13:00:21.679Z,0.60
2023-02-16T13:02:44.595Z,0.73
2023-02-16T13:04:53.253Z,0.65
2023-02-16T13:07:17.854Z,0.60
2023-02-16T13:09:22.007Z,0.40
2023-02-16T13:11:50.553Z,0.52
2023-02-16T13:13:53.696Z,1.10
2023-02-16T13:16:28.976Z,0.65
2023-02-16T13:18:38.926Z,1.27
2023-02-16T13:20:48.416Z,0.70
2023-02-16T13:23:25.013Z,0.80
2023-02-16T13:25:33.490Z,1.20
2023-02-16T13:27:47.561Z,0.90
2023-02-16T13:29:49.140Z,0.55
2023-02-16T13:32:09.330Z,0.80
2023-02-16T13:34:20.314Z,1.13
2023-02-16T13:36:37.651Z,1.40
2023-02-16T13:39:13.385Z,0.70
2023-02-16T13:41:36.075Z,0.93
2023-02-16T13:43:41.650Z,1.17
2023-02-16T13:45:47.313Z,0.85
2023-02-16T13:47:53.087Z,1.17
2023-02-16T13:50:01.989Z,1.60
2023-02-16T13:52:08.720Z,1.08
2023-02-16T13:54:24.287Z,0.80
2023-02-16T13:56:29.433Z,1.08
2023-02-16T13:58:33.810Z,1.08
2023-02-16T14:00:37.128Z,1.15
2023-02-16T14:02:51.699Z,1.08
2023-02-16T14:04:53.396Z,0.90
2023-02-16T14:07:32.558Z,0.90
2023-02-16T14:09:33.997Z,1.20
2023-02-16T14:11:57.442Z,0.95
2023-02-16T14:13:59.149Z,1.30
2023-02-16T14:16:10.695Z,1.15
2023-02-16T14:18:51.306Z,0.90
2023-02-16T14:21:20.736Z,2.10
2023-02-16T14:23:27.938Z,1.48
2023-02-16T14:25:36.149Z,1.27
2023-02-16T14:27:45.765Z,0.95
2023-02-16T14:29:56.702Z,1.55
2023-02-16T14:32:01.095Z,1.77
2023-02-16T14:34:07.662Z,1.52
2023-02-16T14:36:29.116Z,1.38
2023-02-16T14:38:35.193Z,1.40
2023-02-16T14:40:41.676Z,2.08
2023-02-16T14:42:52.490Z,1.95
2023-02-16T14:45:15.067Z,1.85
2023-02-16T14:47:19.390Z,1.58
2023-02-16T14:49:57.744Z,1.17
2023-02-16T14:52:37.178Z,1.35
2023-02-16T14:54:41.624Z,1.63
2023-02-16T14:56:53.256Z,1.42
2023-02-16T14:59:15.677Z,1.85
2023-02-16T15:01:17.981Z,1.60
2023-02-16T15:03:23.934Z,1.98
2023-02-16T15:05:29.567Z,1.27
2023-02-16T15:07:35.192Z,2.28
2023-02-16T15:09:41.922Z,1.02
2023-02-16T15:12:07.553Z,1.65
2023-02-16T15:14:11.132Z,1.35
2023-02-16T15:16:16.104Z,1.50
2023-02-16T15:18:24.328Z,1.55
2023-02-16T15:20:31.349Z,1.73
2023-02-16T15:22:33.554Z,1.75
2023-02-16T15:24:35.124Z,1.35
2023-02-16T15:26:39.563Z,1.05
2023-02-16T15:28:50.520Z,1.17
2023-02-16T15:30:59.849Z,1.25
2023-02-16T15:33:02.846Z,1.10
2023-02-16T15:35:21.702Z,1.75
2023-02-16T15:37:29.703Z,1.20
2023-02-16T15:39:43.636Z,1.42
2023-02-16T15:41:49.853Z,1.30
2023-02-16T15:43:52.081Z,1.45
2023-02-16T15:45:57.005Z,0.98
2023-02-16T15:48:15.266Z,2.05
2023-02-16T15:50:26.951Z,2.00
2023-02-16T15:52:32.331Z,1.30
2023-02-16T15:54:35.604Z,1.23
2023-02-16T15:56:47.284Z,1.80
2023-02-16T15:58:49.033Z,1.38
2023-02-16T16:00:54.748Z,1.80
2023-02-16T16:03:01.006Z,1.88
2023-02-16T16:05:26.212Z,2.72
2023-02-16T16:07:37.577Z,2.67
2023-02-16T16:09:43.146Z,2.90
2023-02-16T16:11:48.286Z,2.88
2023-02-16T16:13:52.378Z,2.60
2023-02-16T16:16:01.667Z,3.15
2023-02-16T16:18:05.320Z,3.63
2023-02-16T16:20:22.083Z,3.08
2023-02-16T16:22:42.901Z,2.33
2023-02-16T16:24:48.616Z,2.35
2023-02-16T16:26:59.182Z,2.47
2023-02-16T16:29:27.445Z,2.13
2023-02-16T16:31:35.210Z,1.58
2023-02-16T16:33:55.150Z,1.88
2023-02-16T16:36:13.954Z,1.50
2023-02-16T16:38:31.014Z,1.73
2023-02-16T16:40:38.067Z,1.77
2023-02-16T16:43:07.244Z,1.70
2023-02-16T16:45:24.677Z,2.00
2023-02-16T16:47:29.610Z,1.38
2023-02-16T16:50:03.235Z,2.40
2023-02-16T16:52:10.999Z,1.70
2023-02-16T16:54:33.594Z,2.10
2023-02-16T16:56:38.992Z,2.88
2023-02-16T16:58:44.486Z,2.90
2023-02-16T17:00:54.809Z,2.85
2023-02-16T17:02:59.602Z,3.33
2023-02-16T17:05:04.857Z,2.63
2023-02-16T17:07:08.870Z,2.85
2023-02-16T17:09:10.307Z,2.58
2023-02-16T17:11:22.721Z,2.40
2023-02-16T17:13:27.734Z,2.60
2023-02-16T17:15:32.105Z,2.58
2023-02-16T17:17:38.431Z,2.13
2023-02-16T17:19:42.335Z,2.63
2023-02-16T17:21:44.003Z,2.10
2023-02-16T17:23:52.791Z,2.45
2023-02-16T17:26:13.638Z,2.00
2023-02-16T17:28:16.462Z,2.42
2023-02-16T17:30:36.508Z,2.08
2023-02-16T17:32:44.009Z,2.13
2023-02-16T17:34:45.567Z,2.10
2023-02-16T17:36:47.486Z,2.17
2023-02-16T17:38:49.231Z,2.33
2023-02-16T17:40:52.517Z,3.33
2023-02-16T17:42:56.696Z,3.08
2023-02-16T17:45:01.058Z,4.05
2023-02-16T17:47:05.231Z,2.47
2023-02-16T17:51:14.618Z,3.13
2023-02-16T17:53:34.881Z,3.10
2023-02-16T17:55:36.309Z,3.72
2023-02-16T17:57:40.451Z,4.00
2023-02-16T17:59:42.305Z,4.00
2023-02-16T18:01:44.557Z,3.70
2023-02-16T18:03:46.057Z,3.05
2023-02-16T18:05:50.901Z,3.10
2023-02-16T18:07:52.337Z,3.42
2023-02-16T18:09:55.585Z,3.72
2023-02-16T18:11:57.047Z,4.57
2023-02-16T18:16:07.679Z,3.50
2023-02-16T18:18:09.515Z,3.95
2023-02-16T18:20:29.835Z,4.35
2023-02-16T18:24:38.326Z,4.15
2023-02-16T18:26:42.410Z,3.63
2023-02-16T18:28:49.789Z,3.88
2023-02-16T18:30:54.425Z,4.32
2023-02-16T18:33:04.937Z,4.43
2023-02-16T18:35:10.743Z,4.40
2023-02-16T18:37:12.208Z,4.38
2023-02-16T18:41:17.748Z,4.65
2023-02-16T18:45:26.173Z,4.65
2023-02-16T18:47:30.721Z,5.10
2023-02-16T18:49:38.232Z,3.90
2023-02-16T18:51:39.636Z,4.95
2023-02-16T18:53:41.403Z,5.30
2023-02-16T18:55:43.102Z,4.72
2023-02-16T18:57:47.870Z,4.88
2023-02-16T18:59:52.120Z,6.03
2023-02-16T19:01:57.213Z,8.35
2023-02-16T19:04:02.442Z,10.57
2023-02-16T19:06:04.340Z,6.50
2023-02-16T19:08:06.252Z,5.57
2023-02-16T19:10:10.947Z,5.65
2023-02-16T19:12:15.138Z,6.03
2023-02-16T19:14:19.567Z,7.03
2023-02-16T19:18:26.659Z,6.70
2023-02-16T19:20:29.649Z,7.10
2023-02-16T19:22:50.586Z,7.43
2023-02-16T19:24:54.753Z,9.45
2023-02-16T19:27:02.708Z,9.15
2023-02-16T19:29:22.975Z,9.85
2023-02-16T19:31:31.766Z,10.77
2023-02-16T19:33:34.726Z,10.23
2023-02-16T19:35:41.554Z,9.27
2023-02-16T19:37:44.379Z,9.63
2023-02-16T19:39:48.366Z,10.23
2023-02-16T19:41:50.599Z,9.85
2023-02-16T19:43:57.803Z,10.30
2023-02-16T19:46:18.838Z,11.27
2023-02-16T19:48:28.234Z,12.52
2023-02-16T19:50:31.326Z,10.35
2023-02-16T19:52:38.086Z,12.40
2023-02-16T19:54:44.743Z,12.45
2023-02-16T19:56:48.751Z,13.63
2023-02-16T19:58:52.831Z,12.65
2023-02-16T20:00:56.539Z,12.50
2023-02-16T20:03:00.248Z,11.98
2023-02-16T20:05:07.388Z,12.63
2023-02-16T20:07:09.941Z,11.40
2023-02-16T20:09:18.919Z,10.43
2023-02-16T20:11:24.937Z,10.07
2023-02-16T20:13:27.737Z,11.02
2023-02-16T20:15:29.236Z,11.55
2023-02-16T20:17:30.889Z,10.93
2023-02-16T20:21:40.901Z,11.40
2023-02-16T20:23:43.109Z,11.48
2023-02-16T20:26:08.919Z,9.70
2023-02-16T20:28:13.047Z,9.85
2023-02-16T20:30:19.762Z,10.45
2023-02-16T20:32:27.760Z,9.73
2023-02-16T20:34:32.482Z,9.30
2023-02-16T20:36:35.669Z,9.45
2023-02-16T20:38:37.435Z,9.40
2023-02-16T20:40:41.710Z,9.73
2023-02-16T20:42:46.370Z,9.90
2023-02-16T20:44:50.405Z,9.38
2023-02-16T20:46:52.232Z,11.02
2023-02-16T20:48:54.108Z,8.50
2023-02-16T20:50:59.960Z,6.55
2023-02-16T20:53:01.473Z,7.03
2023-02-16T20:55:03.070Z,6.50
2023-02-16T20:57:13.165Z,8.23
2023-02-16T20:59:41.545Z,6.70
2023-02-16T21:01:51.850Z,5.60
2023-02-16T21:03:57.820Z,4.30
2023-02-16T21:05:59.338Z,3.03
2023-02-16T21:08:19.468Z,3.28
2023-02-16T21:10:21.075Z,2.58
2023-02-16T21:12:25.749Z,3.22
2023-02-16T21:14:27.340Z,3.17
2023-02-16T21:18:36.342Z,2.08
2023-02-16T21:20:38.694Z,1.65
2023-02-16T21:22:43.923Z,2.20
2023-02-16T21:24:45.515Z,2.30
2023-02-16T21:28:54.389Z,2.05
2023-02-16T21:30:56.176Z,2.10
2023-02-16T21:33:01.084Z,2.42
2023-02-16T21:35:02.654Z,1.77
2023-02-16T21:37:04.362Z,2.22
2023-02-16T21:39:08.641Z,1.75
2023-02-16T21:41:27.542Z,2.05
2023-02-16T21:43:29.238Z,2.05
2023-02-16T21:45:30.904Z,1.88
2023-02-16T21:47:53.608Z,2.03
2023-02-16T21:49:57.998Z,2.15
2023-02-16T21:51:59.456Z,2.08
2023-02-16T21:54:01.035Z,1.55
2023-02-16T21:58:18.558Z,3.03
2023-02-16T22:00:20.328Z,2.15
2023-02-16T22:02:24.617Z,2.03
2023-02-16T22:04:28.883Z,1.67
2023-02-16T22:06:34.898Z,2.53
2023-02-16T22:08:38.119Z,1.98
2023-02-16T22:10:42.270Z,1.63
2023-02-16T22:12:43.715Z,2.55
2023-02-16T22:14:45.422Z,1.98
2023-02-16T22:16:50.775Z,1.92
2023-02-16T22:18:59.212Z,1.95
2023-02-16T22:21:02.384Z,2.10
2023-02-16T22:23:03.877Z,2.33
2023-02-16T22:25:23.975Z,1.85
2023-02-16T22:27:28.206Z,2.20
2023-02-16T22:29:29.628Z,2.92
2023-02-16T22:33:38.090Z,2.25
2023-02-16T22:35:39.545Z,2.42
2023-02-16T22:37:43.723Z,2.63
2023-02-16T22:39:45.136Z,2.00
2023-02-16T22:41:48.455Z,3.22
2023-02-16T22:43:56.259Z,2.88
2023-02-16T22:46:16.865Z,3.72
2023-02-16T22:48:25.613Z,2.45
2023-02-16T22:50:35.729Z,2.97
2023-02-16T22:52:42.396Z,2.25
2023-02-16T22:54:45.376Z,2.15
2023-02-16T22:56:49.723Z,4.53
2023-02-16T22:59:12.146Z,2.72
2023-02-16T23:01:18.122Z,2.20
2023-02-16T23:03:21.318Z,3.50
2023-02-16T23:05:30.880Z,2.65
2023-02-16T23:07:34.972Z,2.40
2023-02-16T23:09:41.339Z,2.05
2023-02-16T23:11:45.485Z,2.03
2023-02-16T23:13:52.759Z,2.38
2023-02-16T23:16:04.309Z,2.88
2023-02-16T23:18:07.806Z,2.72
2023-02-16T23:20:11.847Z,2.60
2023-02-16T23:22:14.601Z,2.70
2023-02-16T23:24:18.846Z,3.75
2023-02-16T23:26:21.410Z,3.00
2023-02-16T23:28:42.196Z,2.97
2023-02-16T23:30:46.784Z,4.35
2023-02-16T23:32:51.114Z,2.83
2023-02-16T23:35:11.024Z,3.25
2023-02-16T23:37:12.823Z,4.03
2023-02-16T23:39:15.934Z,4.07
2023-02-16T23:41:19.952Z,4.07
2023-02-16T23:43:21.425Z,4.28
2023-02-16T23:45:23.137Z,4.57
2023-02-16T23:47:27.264Z,4.53
2023-02-16T23:49:28.902Z,4.43
2023-02-16T23:51:30.602Z,4.88
2023-02-16T23:53:35.068Z,5.05
2023-02-16T23:55:36.560Z,5.55
2023-02-16T23:57:38.076Z,5.70
2023-02-16T23:59:39.760Z,6.07
